Time;durP1;ratioP1;P1;durP2;ratioP2;P2;SDS_P1;SDS_P2;PMS_P1;PMS_P2;Temp;Humidity;BMP_temperature;BMP_pressure;BME280_temperature;BME280_humidity;BME280_pressure;Samples;Min_cycle;Max_cycle;Signal;HPM_P1;HPM_P2
2022/07/15 00:02:13;;;;;;;5.75;1.20;;;16.70;66.30;;;;;;5094983;28;20057;-37
2022/07/15 00:04:38;;;;;;;2.35;1.08;;;16.60;66.40;;;;;;5094659;28;20035;-37
2022/07/15 00:07:06;;;;;;;3.05;1.20;;;16.60;66.50;;;;;;5095079;28;20397;-38
2022/07/15 00:12:16;;;;;;;3.95;1.00;;;16.60;66.70;;;;;;5094508;28;20141;-38
2022/07/15 00:14:42;;;;;;;3.47;1.15;;;16.50;66.70;;;;;;5093166;28;20499;-38
2022/07/15 00:17:08;;;;;;;1.80;0.93;;;16.40;66.80;;;;;;5094433;28;20032;-38
2022/07/15 00:19:34;;;;;;;5.93;1.30;;;16.40;66.90;;;;;;5093898;28;20036;-38
2022/07/15 00:22:00;;;;;;;3.00;1.23;;;16.40;67.10;;;;;;5094398;28;20028;-37
2022/07/15 00:24:26;;;;;;;4.57;1.40;;;16.40;67.20;;;;;;5094868;28;20378;-36
2022/07/15 00:26:51;;;;;;;3.17;1.10;;;16.30;67.30;;;;;;5095478;28;20024;-44
2022/07/15 00:29:17;;;;;;;3.72;1.10;;;16.30;67.50;;;;;;5094579;28;20089;-39
2022/07/15 00:31:42;;;;;;;3.13;1.10;;;16.30;67.50;;;;;;5093324;28;20077;-38
2022/07/15 00:34:08;;;;;;;4.63;1.52;;;16.30;67.60;;;;;;5094584;28;20111;-42
2022/07/15 00:36:34;;;;;;;3.03;1.00;;;16.20;68.20;;;;;;5094412;28;20425;-36
2022/07/15 00:38:59;;;;;;;4.00;1.40;;;16.20;67.80;;;;;;5094799;28;20024;-37
2022/07/15 00:41:25;;;;;;;4.85;1.30;;;16.20;67.90;;;;;;5094050;28;20118;-36
2022/07/15 00:43:51;;;;;;;5.18;1.45;;;16.10;68.00;;;;;;5094150;28;20024;-37
2022/07/15 00:46:18;;;;;;;1.98;1.10;;;16.10;68.10;;;;;;5093910;28;20049;-37
2022/07/15 00:48:44;;;;;;;4.03;1.63;;;16.10;68.10;;;;;;5093847;28;20068;-38
2022/07/15 00:51:10;;;;;;;2.90;1.27;;;16.10;68.10;;;;;;5094338;28;20088;-38
2022/07/15 00:53:37;;;;;;;3.83;1.13;;;16.20;68.10;;;;;;5093770;28;20446;-38
2022/07/15 00:56:06;;;;;;;2.65;1.13;;;16.10;68.20;;;;;;5093948;28;20479;-39
2022/07/15 00:58:36;;;;;;;5.85;1.25;;;16.20;68.30;;;;;;5093876;28;20020;-36
2022/07/15 01:01:02;;;;;;;5.53;1.23;;;16.20;68.20;;;;;;5093350;28;20024;-38
2022/07/15 01:03:30;;;;;;;3.95;1.40;;;16.20;68.20;;;;;;5093781;28;20516;-37
2022/07/15 01:05:57;;;;;;;5.00;1.30;;;16.20;68.20;;;;;;5093310;28;20124;-38
2022/07/15 01:08:23;;;;;;;3.13;1.30;;;16.30;68.20;;;;;;5093286;28;20104;-38
2022/07/15 01:10:49;;;;;;;3.42;1.13;;;16.30;68.20;;;;;;5093128;28;20146;-38
2022/07/15 01:13:16;;;;;;;4.07;1.13;;;16.30;68.10;;;;;;5093164;28;20112;-39
2022/07/15 01:15:41;;;;;;;2.95;1.00;;;16.40;68.10;;;;;;5093358;28;20036;-38
2022/07/15 01:18:07;;;;;;;2.78;0.90;;;16.40;68.00;;;;;;5091625;28;20035;-38
2022/07/15 01:20:33;;;;;;;2.55;1.20;;;16.40;68.00;;;;;;5093040;28;20493;-38
2022/07/15 01:22:59;;;;;;;3.40;1.23;;;16.40;68.00;;;;;;5092996;28;20024;-40
2022/07/15 01:25:26;;;;;;;4.57;1.10;;;16.40;68.00;;;;;;5074811;28;20036;-36
2022/07/15 01:27:52;;;;;;;4.95;1.20;;;16.40;68.00;;;;;;5093344;28;20065;-38
2022/07/15 01:30:18;;;;;;;4.82;1.25;;;16.50;68.10;;;;;;5093341;28;20119;-38
2022/07/15 01:32:43;;;;;;;5.05;1.10;;;16.40;68.00;;;;;;5092438;28;20123;-38
2022/07/15 01:35:09;;;;;;;3.08;1.30;;;16.50;68.10;;;;;;5093028;28;20039;-38
2022/07/15 01:37:34;;;;;;;4.28;1.10;;;16.40;68.10;;;;;;5093035;28;20503;-38
2022/07/15 01:40:00;;;;;;;6.20;1.38;;;16.40;68.20;;;;;;5092624;28;20028;-38
2022/07/15 01:42:26;;;;;;;4.10;1.08;;;16.40;68.20;;;;;;5093265;28;20054;-38
2022/07/15 01:44:51;;;;;;;5.43;1.27;;;16.50;68.20;;;;;;5092858;28;20495;-38
2022/07/15 01:47:17;;;;;;;3.75;1.25;;;16.50;68.20;;;;;;5092734;28;20024;-38
2022/07/15 01:49:43;;;;;;;4.93;1.10;;;16.50;68.20;;;;;;5091236;28;20040;-42
2022/07/15 01:52:09;;;;;;;3.78;1.17;;;16.50;68.30;;;;;;5092598;28;20054;-37
2022/07/15 01:54:35;;;;;;;3.05;1.10;;;16.50;68.30;;;;;;5092444;28;20020;-38
2022/07/15 01:57:01;;;;;;;3.15;1.40;;;16.50;68.30;;;;;;5092664;28;20111;-38
2022/07/15 01:59:27;;;;;;;6.93;2.08;;;16.50;68.40;;;;;;5092448;28;20123;-37
2022/07/15 02:01:55;;;;;;;3.17;1.08;;;16.50;68.50;;;;;;5092509;28;20028;-38
2022/07/15 02:04:21;;;;;;;3.17;1.00;;;16.40;68.40;;;;;;5092243;28;20024;-38
2022/07/15 02:06:47;;;;;;;3.33;1.30;;;16.40;68.40;;;;;;5092528;28;20031;-38
2022/07/15 02:09:13;;;;;;;1.10;0.80;;;16.50;68.50;;;;;;5091988;28;20024;-39
2022/07/15 02:11:39;;;;;;;4.28;1.50;;;16.50;68.60;;;;;;5092169;28;20107;-38
2022/07/15 02:14:06;;;;;;;3.80;1.35;;;16.50;68.60;;;;;;5092126;28;20031;-43
2022/07/15 02:16:33;;;;;;;3.80;1.73;;;16.50;68.60;;;;;;5092205;28;20016;-37
2022/07/15 02:18:59;;;;;;;4.75;1.00;;;16.50;68.60;;;;;;5092333;28;20064;-40
2022/07/15 02:21:26;;;;;;;3.42;0.90;;;16.50;68.70;;;;;;5092691;28;20064;-38
2022/07/15 02:23:57;;;;;;;4.43;1.10;;;16.50;68.60;;;;;;5092477;28;20028;-39
2022/07/15 02:26:22;;;;;;;4.03;1.08;;;16.50;68.70;;;;;;5091917;28;20024;-43
2022/07/15 02:28:48;;;;;;;2.22;0.88;;;16.50;68.70;;;;;;5092159;28;20111;-39
2022/07/15 02:31:14;;;;;;;2.67;1.00;;;16.50;68.70;;;;;;5091847;28;20502;-38
2022/07/15 02:33:41;;;;;;;1.77;1.00;;;16.40;68.70;;;;;;5091206;28;20024;-39
2022/07/15 02:36:07;;;;;;;3.47;1.23;;;16.50;68.80;;;;;;5092421;28;20159;-37
2022/07/15 02:38:33;;;;;;;3.13;1.08;;;16.50;68.80;;;;;;5092198;28;20016;-37
2022/07/15 02:40:59;;;;;;;2.58;1.05;;;16.50;68.80;;;;;;5092323;28;20024;-38
2022/07/15 02:43:24;;;;;;;2.65;1.00;;;16.40;68.80;;;;;;5093523;28;20479;-39
2022/07/15 02:45:50;;;;;;;2.42;1.10;;;16.40;68.80;;;;;;5096496;28;20384;-37
2022/07/15 02:48:16;;;;;;;2.92;1.30;;;16.40;68.80;;;;;;5096171;28;20020;-38
2022/07/15 02:50:42;;;;;;;2.00;0.93;;;16.40;68.80;;;;;;5096649;28;20020;-38
2022/07/15 02:53:08;;;;;;;5.13;1.10;;;16.50;68.80;;;;;;5096186;28;20494;-40
2022/07/15 02:55:34;;;;;;;3.20;0.90;;;16.40;68.70;;;;;;5096314;28;20016;-38
2022/07/15 02:57:59;;;;;;;1.88;1.10;;;16.50;68.70;;;;;;5096149;28;20498;-37
2022/07/15 03:00:25;;;;;;;6.65;1.20;;;16.50;68.70;;;;;;5095751;28;20039;-36
2022/07/15 03:02:51;;;;;;;3.35;1.10;;;16.50;68.80;;;;;;5095987;28;20478;-38
2022/07/15 03:05:17;;;;;;;3.53;1.42;;;16.40;68.60;;;;;;5094368;28;20021;-42
2022/07/15 03:07:43;;;;;;;4.70;1.08;;;16.40;68.60;;;;;;5095805;28;20123;-38
2022/07/15 03:10:10;;;;;;;2.17;1.00;;;16.40;68.70;;;;;;5095497;28;20217;-38
2022/07/15 03:12:36;;;;;;;3.78;1.10;;;16.40;68.70;;;;;;5095744;28;20024;-39
2022/07/15 03:15:02;;;;;;;2.13;1.02;;;16.40;68.70;;;;;;5095875;28;20378;-38
2022/07/15 03:17:28;;;;;;;3.05;1.00;;;16.40;68.80;;;;;;5095861;28;20081;-37
2022/07/15 03:19:57;;;;;;;4.53;1.15;;;16.40;68.80;;;;;;5095947;28;20020;-39
2022/07/15 03:22:24;;;;;;;2.67;1.10;;;16.40;68.80;;;;;;5095722;28;20498;-37
2022/07/15 03:24:49;;;;;;;3.42;0.90;;;16.40;68.90;;;;;;5095387;28;20119;-37
2022/07/15 03:27:16;;;;;;;3.40;1.05;;;16.40;68.90;;;;;;5095579;28;20060;-37
2022/07/15 03:29:42;;;;;;;3.38;1.10;;;16.30;68.90;;;;;;5095194;28;20137;-38
2022/07/15 03:32:10;;;;;;;4.00;1.25;;;16.30;68.90;;;;;;5095512;28;20028;-38
2022/07/15 03:34:36;;;;;;;5.68;1.23;;;16.30;68.90;;;;;;5095448;28;20467;-37
2022/07/15 03:37:01;;;;;;;3.90;0.95;;;16.40;68.90;;;;;;5095579;28;20134;-38
2022/07/15 03:39:27;;;;;;;4.10;1.20;;;16.40;68.90;;;;;;5093965;28;20115;-39
2022/07/15 03:41:53;;;;;;;1.98;1.10;;;16.40;69.00;;;;;;5093691;28;20028;-37
2022/07/15 03:44:19;;;;;;;2.70;1.00;;;16.40;68.90;;;;;;5094990;28;20066;-37
2022/07/15 03:46:47;;;;;;;3.95;1.05;;;16.40;69.00;;;;;;5093856;28;20023;-45
2022/07/15 03:49:14;;;;;;;4.45;1.30;;;16.40;69.00;;;;;;5094893;28;20028;-38
2022/07/15 03:51:40;;;;;;;3.80;1.10;;;16.30;69.10;;;;;;5094724;28;20035;-40
2022/07/15 03:54:06;;;;;;;3.35;1.00;;;16.30;69.20;;;;;;5094519;28;20028;-39
2022/07/15 03:56:33;;;;;;;1.85;1.20;;;16.30;69.20;;;;;;5093273;28;20193;-37
2022/07/15 03:58:59;;;;;;;5.07;1.15;;;16.30;69.30;;;;;;5094834;28;20081;-37
2022/07/15 04:01:25;;;;;;;2.67;0.98;;;16.30;69.50;;;;;;5094749;28;20020;-38
2022/07/15 04:03:52;;;;;;;3.63;1.17;;;16.30;70.10;;;;;;5093320;28;20471;-37
2022/07/15 04:06:19;;;;;;;11.00;1.80;;;16.30;69.50;;;;;;5094880;28;20020;-38
2022/07/15 04:08:45;;;;;;;2.60;0.85;;;16.30;69.50;;;;;;5094333;28;20035;-38
2022/07/15 04:11:11;;;;;;;2.28;0.90;;;16.30;69.50;;;;;;5094064;28;20097;-45
2022/07/15 04:13:37;;;;;;;5.00;1.20;;;16.30;69.60;;;;;;5094331;28;20144;-41
2022/07/15 04:16:03;;;;;;;6.20;1.10;;;16.30;69.70;;;;;;5094399;28;20024;-38
2022/07/15 04:18:29;;;;;;;3.33;0.98;;;16.20;69.60;;;;;;5094183;28;20027;-38
2022/07/15 04:20:54;;;;;;;4.07;0.82;;;16.20;69.70;;;;;;5094106;28;20455;-38
2022/07/15 04:23:20;;;;;;;2.60;1.00;;;16.20;69.90;;;;;;5094387;28;20173;-38
2022/07/15 04:25:46;;;;;;;3.58;1.15;;;16.10;69.90;;;;;;5094047;28;20472;-38
2022/07/15 04:28:12;;;;;;;4.38;1.40;;;16.20;70.00;;;;;;5094421;28;20051;-38
2022/07/15 04:30:38;;;;;;;2.30;0.95;;;16.10;70.00;;;;;;5094216;28;20024;-38
2022/07/15 04:33:04;;;;;;;2.72;0.95;;;16.10;70.10;;;;;;5092813;28;20420;-39
2022/07/15 04:35:29;;;;;;;3.97;0.98;;;16.10;70.10;;;;;;5094098;28;20094;-42
2022/07/15 04:37:55;;;;;;;2.28;0.90;;;16.10;70.20;;;;;;5092631;28;20039;-38
2022/07/15 04:40:21;;;;;;;4.70;1.00;;;16.10;70.20;;;;;;5094214;28;20069;-38
2022/07/15 04:42:46;;;;;;;6.20;1.08;;;16.10;70.30;;;;;;5093862;28;20029;-38
2022/07/15 04:45:12;;;;;;;4.82;0.90;;;16.00;70.30;;;;;;5094096;28;20064;-38
2022/07/15 04:47:39;;;;;;;4.30;1.20;;;16.00;70.40;;;;;;5093695;28;20506;-38
2022/07/15 04:52:49;;;;;;;4.45;1.23;;;16.00;70.50;;;;;;5093693;28;20092;-38
2022/07/15 04:55:15;;;;;;;3.33;1.00;;;16.00;70.40;;;;;;5093688;28;20016;-42
2022/07/15 04:57:41;;;;;;;2.67;1.08;;;16.00;70.40;;;;;;5092622;28;20382;-39
2022/07/15 05:00:09;;;;;;;3.92;1.10;;;16.10;70.40;;;;;;5093728;28;20497;-37
2022/07/15 05:02:35;;;;;;;2.83;1.10;;;16.10;70.40;;;;;;5093764;28;20428;-40
2022/07/15 05:05:00;;;;;;;4.15;1.02;;;16.10;70.30;;;;;;5092436;28;20024;-38
2022/07/15 05:07:26;;;;;;;4.35;0.95;;;16.20;70.20;;;;;;5093529;28;20395;-36
2022/07/15 05:09:52;;;;;;;3.78;1.33;;;16.10;70.10;;;;;;5093669;28;20036;-38
2022/07/15 05:12:18;;;;;;;3.30;0.80;;;16.20;70.10;;;;;;5093668;28;20027;-37
2022/07/15 05:14:43;;;;;;;4.28;1.00;;;16.20;70.10;;;;;;5093275;28;20023;-37
2022/07/15 05:17:09;;;;;;;4.90;1.33;;;16.20;70.10;;;;;;5093226;28;20020;-39
2022/07/15 05:19:35;;;;;;;4.93;1.27;;;16.20;70.20;;;;;;5093083;28;20047;-42
2022/07/15 05:22:01;;;;;;;3.90;1.08;;;16.20;70.20;;;;;;5093549;28;20024;-41
2022/07/15 05:24:27;;;;;;;3.47;0.95;;;16.20;70.40;;;;;;5092927;28;20503;-37
2022/07/15 05:26:53;;;;;;;4.18;1.05;;;16.20;71.00;;;;;;5092408;28;20050;-38
2022/07/15 05:29:21;;;;;;;3.17;1.00;;;16.20;70.40;;;;;;5093188;28;20126;-37
2022/07/15 05:31:47;;;;;;;3.10;1.10;;;16.20;70.40;;;;;;5093357;28;20084;-38
2022/07/15 05:34:13;;;;;;;3.70;1.20;;;16.20;70.40;;;;;;5093169;28;20028;-38
2022/07/15 05:36:39;;;;;;;3.42;1.10;;;16.20;70.60;;;;;;5093362;28;20019;-47
2022/07/15 05:39:05;;;;;;;5.07;1.10;;;16.10;70.60;;;;;;5091794;28;20498;-37
2022/07/15 05:41:33;;;;;;;4.63;1.10;;;16.20;70.60;;;;;;5093385;28;20065;-36
2022/07/15 05:44:00;;;;;;;2.95;1.00;;;16.20;70.60;;;;;;5093400;28;20031;-38
2022/07/15 05:46:25;;;;;;;2.08;0.93;;;16.20;70.60;;;;;;5092279;28;20042;-37
2022/07/15 05:48:51;;;;;;;2.90;1.10;;;16.20;70.60;;;;;;5093020;28;20028;-38
2022/07/15 05:51:17;;;;;;;3.13;1.00;;;16.20;70.60;;;;;;5092742;28;20390;-38
2022/07/15 05:53:43;;;;;;;4.00;1.00;;;16.30;71.20;;;;;;5093148;28;20020;-40
2022/07/15 05:56:09;;;;;;;4.95;1.20;;;16.30;70.60;;;;;;5092549;28;20016;-36
2022/07/15 05:58:34;;;;;;;4.10;1.10;;;16.30;70.60;;;;;;5092370;28;20020;-36
2022/07/15 06:01:00;;;;;;;2.90;0.88;;;16.30;70.60;;;;;;5092337;28;20055;-37
2022/07/15 06:03:26;;;;;;;3.88;1.20;;;16.30;70.60;;;;;;5092646;28;20107;-36
2022/07/15 06:05:51;;;;;;;4.10;1.20;;;16.30;70.60;;;;;;5092923;28;20099;-38
2022/07/15 06:08:17;;;;;;;3.97;1.20;;;16.30;70.70;;;;;;5092512;28;20060;-37
2022/07/15 06:10:44;;;;;;;2.17;1.00;;;16.30;70.70;;;;;;5092359;28;20392;-38
2022/07/15 06:13:10;;;;;;;3.90;1.10;;;16.30;70.80;;;;;;5092373;28;20433;-37
2022/07/15 06:15:36;;;;;;;4.00;1.27;;;16.30;70.80;;;;;;5092630;28;20462;-38
2022/07/15 06:18:02;;;;;;;4.88;1.00;;;16.30;70.70;;;;;;5090639;28;20088;-38
2022/07/15 06:20:28;;;;;;;7.93;1.65;;;16.40;70.80;;;;;;5092253;28;20538;-40
2022/07/15 06:22:53;;;;;;;3.85;1.00;;;16.40;70.70;;;;;;5093013;28;20028;-37
2022/07/15 06:25:20;;;;;;;3.03;1.10;;;16.40;70.70;;;;;;5092211;28;20016;-37
2022/07/15 06:27:45;;;;;;;3.28;1.40;;;16.50;70.60;;;;;;5092682;28;20031;-37
2022/07/15 06:30:11;;;;;;;4.47;1.23;;;16.60;70.60;;;;;;5092799;28;20020;-37
2022/07/15 06:32:37;;;;;;;3.50;0.80;;;16.60;70.40;;;;;;5092056;28;20016;-38
2022/07/15 06:35:03;;;;;;;3.78;1.10;;;16.60;70.30;;;;;;5092272;28;20031;-38
2022/07/15 06:37:28;;;;;;;2.58;0.90;;;16.70;70.10;;;;;;5092510;28;20424;-37
2022/07/15 06:39:55;;;;;;;3.97;0.82;;;16.80;69.80;;;;;;5092076;28;20024;-38
2022/07/15 06:42:21;;;;;;;3.28;0.90;;;16.80;69.60;;;;;;5092459;28;20059;-39
2022/07/15 06:44:47;;;;;;;2.00;0.60;;;16.90;69.40;;;;;;5091282;28;20127;-38
2022/07/15 06:47:13;;;;;;;3.58;1.15;;;16.90;69.10;;;;;;5092335;28;20110;-38
2022/07/15 06:49:38;;;;;;;2.05;0.80;;;17.00;68.70;;;;;;5092469;28;20024;-37
2022/07/15 06:52:05;;;;;;;4.03;1.30;;;17.00;68.40;;;;;;5092160;28;20016;-37
2022/07/15 06:54:30;;;;;;;3.92;1.27;;;17.00;68.00;;;;;;5092330;28;20036;-36
2022/07/15 06:56:57;;;;;;;3.60;1.00;;;17.00;67.90;;;;;;5092427;28;20080;-44
2022/07/15 06:59:23;;;;;;;3.65;1.00;;;17.10;67.90;;;;;;5091905;28;20024;-37
2022/07/15 07:01:49;;;;;;;3.83;1.20;;;17.10;67.70;;;;;;5091922;28;20451;-38
2022/07/15 07:04:14;;;;;;;4.78;1.13;;;17.20;67.70;;;;;;5090524;28;20106;-37
2022/07/15 07:06:40;;;;;;;2.53;1.10;;;17.20;67.50;;;;;;5091733;28;20024;-37
2022/07/15 07:09:05;;;;;;;3.13;0.88;;;17.20;67.30;;;;;;5091462;28;20056;-36
2022/07/15 07:11:32;;;;;;;1.52;0.50;;;17.30;67.30;;;;;;5092417;28;20103;-38
2022/07/15 07:13:59;;;;;;;4.32;0.82;;;17.30;67.20;;;;;;5091779;28;20028;-37
2022/07/15 07:16:25;;;;;;;2.40;0.70;;;17.30;66.90;;;;;;5091717;28;20026;-37
2022/07/15 07:18:51;;;;;;;2.83;0.70;;;17.40;66.50;;;;;;5091935;28;20070;-37
2022/07/15 07:21:17;;;;;;;2.92;0.70;;;17.50;66.40;;;;;;5091996;28;20020;-38
2022/07/15 07:23:44;;;;;;;2.67;0.75;;;17.50;65.80;;;;;;5091830;28;20119;-37
2022/07/15 07:26:12;;;;;;;4.35;0.60;;;17.60;65.60;;;;;;5091571;28;20036;-31
2022/07/15 07:28:41;;;;;;;2.03;0.57;;;17.60;65.20;;;;;;5092101;28;20376;-33
2022/07/15 07:31:11;;;;;;;2.83;0.77;;;17.70;65.00;;;;;;5094741;28;20348;-26
2022/07/15 07:33:37;;;;;;;1.00;0.50;;;17.80;64.20;;;;;;5094090;28;20016;-26
2022/07/15 07:36:04;;;;;;;2.22;0.70;;;17.80;64.00;;;;;;5093856;28;20022;-33
2022/07/15 07:38:31;;;;;;;3.60;0.60;;;17.90;63.70;;;;;;5093985;28;20016;-30
2022/07/15 07:40:57;;;;;;;3.45;0.63;;;17.90;63.60;;;;;;5095285;28;20051;-32
2022/07/15 07:43:23;;;;;;;2.75;0.63;;;17.90;63.40;;;;;;5095017;28;20125;-30
2022/07/15 07:45:48;;;;;;;3.05;0.70;;;18.00;63.10;;;;;;5094851;28;20089;-45
2022/07/15 07:48:16;;;;;;;2.30;0.55;;;18.10;62.90;;;;;;5094859;28;20034;-45
2022/07/15 07:50:41;;;;;;;2.25;0.47;;;18.10;62.70;;;;;;5094971;28;20032;-45
2022/07/15 07:53:07;;;;;;;1.55;0.50;;;18.20;62.40;;;;;;5094795;28;20024;-33
2022/07/15 07:55:33;;;;;;;1.35;0.80;;;18.30;62.00;;;;;;5095145;28;20028;-32
2022/07/15 07:57:59;;;;;;;2.40;1.73;;;18.40;61.50;;;;;;5095069;28;20020;-35
2022/07/15 08:00:26;;;;;;;2.90;1.17;;;18.50;61.00;;;;;;5094898;28;20031;-32
2022/07/15 08:02:53;;;;;;;3.05;0.90;;;18.50;60.50;;;;;;5095497;28;20020;-35
2022/07/15 08:05:19;;;;;;;2.55;0.73;;;18.60;60.30;;;;;;5095323;28;20025;-32
2022/07/15 08:07:45;;;;;;;0.68;0.40;;;18.60;59.80;;;;;;5095325;28;20388;-32
2022/07/15 08:10:12;;;;;;;3.50;0.70;;;18.70;58.90;;;;;;5094698;28;20048;-31
2022/07/15 08:12:38;;;;;;;1.55;0.45;;;18.80;58.90;;;;;;5094576;28;20021;-31
2022/07/15 08:15:06;;;;;;;2.20;0.57;;;19.00;58.50;;;;;;5094658;28;20356;-33
2022/07/15 08:17:31;;;;;;;2.53;1.20;;;19.10;57.90;;;;;;5094511;28;20023;-37
2022/07/15 08:19:57;;;;;;;1.33;0.68;;;19.20;57.50;;;;;;5094801;28;20476;-33
2022/07/15 08:22:23;;;;;;;3.63;0.82;;;19.30;57.60;;;;;;5094855;28;20030;-35
2022/07/15 08:24:51;;;;;;;3.88;1.00;;;19.40;57.70;;;;;;5094944;28;20028;-37
2022/07/15 08:27:17;;;;;;;2.45;0.90;;;19.40;58.00;;;;;;5095058;28;20046;-34
2022/07/15 08:29:44;;;;;;;2.40;0.80;;;19.40;58.20;;;;;;5094337;28;20032;-34
2022/07/15 08:32:10;;;;;;;4.60;0.80;;;19.40;58.30;;;;;;5094284;28;20020;-35
2022/07/15 08:34:36;;;;;;;1.55;0.65;;;19.50;58.60;;;;;;5094433;28;20028;-37
2022/07/15 08:37:01;;;;;;;4.60;0.70;;;19.40;58.60;;;;;;5095338;28;20042;-36
2022/07/15 08:39:27;;;;;;;3.20;0.68;;;19.50;58.70;;;;;;5094191;28;20074;-35
2022/07/15 08:41:53;;;;;;;4.45;0.85;;;19.50;58.70;;;;;;5093932;28;20422;-36
2022/07/15 08:44:19;;;;;;;1.08;0.50;;;19.60;58.60;;;;;;5094512;28;20028;-38
2022/07/15 08:46:47;;;;;;;2.10;0.70;;;19.60;58.40;;;;;;5095115;28;20031;-39
2022/07/15 08:49:14;;;;;;;3.42;0.80;;;19.70;58.10;;;;;;5095119;28;20374;-37
2022/07/15 08:51:43;;;;;;;1.67;0.40;;;19.80;57.90;;;;;;5094425;28;20106;-23
2022/07/15 08:54:09;;;;;;;1.88;0.57;;;19.90;57.70;;;;;;5092687;28;20325;-23
2022/07/15 08:56:36;;;;;;;0.90;0.40;;;19.80;57.40;;;;;;5092591;28;20008;-23
2022/07/15 08:59:04;;;;;;;1.83;0.60;;;19.80;57.40;;;;;;5094298;28;20035;-22
2022/07/15 09:01:31;;;;;;;2.22;0.60;;;19.80;57.20;;;;;;5094173;28;20035;-23
2022/07/15 09:03:57;;;;;;;1.38;0.40;;;19.80;56.80;;;;;;5094065;28;20027;-22
2022/07/15 09:06:48;;;;;;;1.63;0.40;;;19.80;56.40;;;;;;5093991;28;20119;-22
2022/07/15 09:09:32;;;;;;;1.60;0.43;;;19.80;55.90;;;;;;5092003;28;20024;-23
2022/07/15 09:11:59;;;;;;;1.95;0.47;;;19.90;55.80;;;;;;5093892;28;20024;-24
2022/07/15 09:14:29;;;;;;;5.45;0.60;;;19.90;55.80;;;;;;5093738;28;20116;-35
2022/07/15 09:17:10;;;;;;;1.60;0.38;;;19.90;55.70;;;;;;5093569;28;20016;-31
2022/07/15 09:19:58;;;;;;;0.82;0.50;;;20.00;55.70;;;;;;5093424;28;20082;-31
2022/07/15 09:22:26;;;;;;;1.48;0.43;;;20.10;55.40;;;;;;5093614;28;20042;-30
2022/07/15 09:25:05;;;;;;;3.92;0.60;;;20.10;55.60;;;;;;5093544;28;20029;-30
2022/07/15 09:27:37;;;;;;;2.88;0.57;;;20.30;55.60;;;;;;5093333;28;20031;-32
2022/07/15 09:36:20;;;;;;;4.07;0.70;;;20.40;55.10;;;;;;5093771;28;20575;-47
2022/07/15 09:39:04;;;;;;;1.90;0.55;;;20.30;55.20;;;;;;5093293;28;20115;-46
2022/07/15 09:41:36;;;;;;;3.63;0.82;;;20.30;55.20;;;;;;5093879;28;20016;-46
2022/07/15 09:44:05;;;;;;;0.98;0.50;;;20.30;55.40;;;;;;5092021;28;20043;-47
2022/07/15 09:46:41;;;;;;;2.95;0.88;;;20.30;55.50;;;;;;5093588;28;20024;-47
2022/07/15 09:49:07;;;;;;;1.67;0.50;;;20.30;55.50;;;;;;5093388;28;20035;-46
2022/07/15 09:51:57;;;;;;;1.38;0.60;;;20.40;55.50;;;;;;5093137;28;20179;-33
2022/07/15 09:54:30;;;;;;;2.72;0.50;;;20.50;55.40;;;;;;5092824;28;20034;-33
2022/07/15 09:56:58;;;;;;;3.50;0.80;;;20.60;55.10;;;;;;5091470;28;20020;-32
2022/07/15 09:59:24;;;;;;;3.17;0.80;;;20.80;55.10;;;;;;5092995;28;20510;-35
2022/07/15 10:01:50;;;;;;;1.63;0.57;;;20.90;54.80;;;;;;5092769;28;20034;-33
2022/07/15 10:04:19;;;;;;;2.03;0.73;;;20.90;54.50;;;;;;5091164;28;20119;-32
2022/07/15 10:06:47;;;;;;;1.40;0.60;;;21.00;54.20;;;;;;5091340;28;20071;-32
2022/07/15 10:09:13;;;;;;;1.70;0.80;;;21.00;54.20;;;;;;5092618;28;20131;-38
2022/07/15 10:11:44;;;;;;;2.20;0.77;;;21.00;53.90;;;;;;5092864;28;20064;-37
2022/07/15 10:14:26;;;;;;;1.77;0.60;;;20.90;53.80;;;;;;5093140;28;20059;-35
2022/07/15 10:17:29;;;;;;;2.08;0.82;;;20.90;53.90;;;;;;5092359;28;20022;-32
2022/07/15 10:20:20;;;;;;;2.55;0.70;;;20.90;53.90;;;;;;5092979;28;20174;-38
2022/07/15 10:23:15;;;;;;;4.15;0.90;;;21.00;53.90;;;;;;5089187;28;20476;-35
2022/07/15 10:26:07;;;;;;;2.60;0.60;;;21.00;53.70;;;;;;5090897;28;20016;-35
2022/07/15 10:28:45;;;;;;;2.80;0.40;;;21.10;53.40;;;;;;5092764;28;20123;-31
2022/07/15 10:31:20;;;;;;;0.93;0.50;;;21.20;53.20;;;;;;5091367;28;20043;-33
2022/07/15 10:34:16;;;;;;;1.33;0.50;;;21.20;53.00;;;;;;5091415;28;20551;-33
2022/07/15 10:36:47;;;;;;;1.48;0.57;;;21.20;53.00;;;;;;5087986;28;20085;-33
2022/07/15 10:39:15;;;;;;;1.08;0.35;;;21.30;53.00;;;;;;5092752;28;20030;-32
2022/07/15 10:42:04;;;;;;;1.27;0.68;;;21.50;52.90;;;;;;5092522;28;20103;-30
2022/07/15 10:44:35;;;;;;;1.75;0.50;;;21.60;52.40;;;;;;5092667;28;20437;-27
2022/07/15 10:47:12;;;;;;;3.00;0.50;;;21.60;52.00;;;;;;5092579;28;20095;-29
2022/07/15 10:49:42;;;;;;;0.77;0.40;;;21.60;52.10;;;;;;5091428;28;20032;-29
2022/07/15 10:52:31;;;;;;;1.05;0.50;;;21.70;52.00;;;;;;5090594;28;20096;-29
2022/07/15 10:54:58;;;;;;;1.30;0.60;;;21.90;51.90;;;;;;5092382;28;20020;-28
2022/07/15 10:57:44;;;;;;;3.05;0.70;;;22.10;51.70;;;;;;5092060;28;20104;-28
2022/07/15 11:00:34;;;;;;;1.17;0.40;;;22.20;51.30;;;;;;5090730;28;20036;-33
2022/07/15 11:03:12;;;;;;;1.55;0.68;;;22.30;51.00;;;;;;5092138;28;20024;-29
2022/07/15 11:06:01;;;;;;;2.80;0.63;;;22.40;50.80;;;;;;5095705;28;20367;-47
2022/07/15 11:08:36;;;;;;;1.35;0.40;;;22.40;50.30;;;;;;5095936;28;20141;-47
2022/07/15 11:11:13;;;;;;;1.55;0.50;;;22.40;50.30;;;;;;5094425;28;20094;-44
2022/07/15 11:13:39;;;;;;;1.15;0.50;;;22.50;50.30;;;;;;5096029;28;20036;-44
2022/07/15 11:16:09;;;;;;;3.50;0.68;;;22.50;50.30;;;;;;5095853;28;20024;-45
2022/07/15 11:18:45;;;;;;;0.88;0.47;;;22.60;50.10;;;;;;5095665;28;20022;-45
2022/07/15 11:21:12;;;;;;;1.15;0.32;;;22.60;49.90;;;;;;5095886;28;20036;-45
2022/07/15 11:23:38;;;;;;;1.35;0.50;;;22.60;49.90;;;;;;5095651;28;20035;-45
2022/07/15 11:26:04;;;;;;;2.38;0.70;;;22.60;49.90;;;;;;5094271;28;20028;-45
2022/07/15 11:28:30;;;;;;;2.45;0.80;;;22.50;49.90;;;;;;5094553;28;20177;-44
2022/07/15 11:30:56;;;;;;;2.42;0.52;;;22.40;50.00;;;;;;5095353;28;20119;-43
2022/07/15 11:33:27;;;;;;;0.55;0.50;;;22.30;50.30;;;;;;5095390;28;20040;-45
2022/07/15 11:35:58;;;;;;;3.55;0.57;;;22.20;50.10;;;;;;5095580;28;20595;-45
2022/07/15 11:38:27;;;;;;;1.58;0.40;;;22.20;50.20;;;;;;5095138;28;20047;-41
2022/07/15 11:46:29;;;;;;;1.02;0.68;;;22.30;50.30;;;;;;5095257;28;20042;-32
2022/07/15 11:48:56;;;;;;;1.58;0.55;;;22.50;50.20;;;;;;5094907;28;20028;-31
2022/07/15 11:51:27;;;;;;;1.17;0.50;;;22.60;49.90;;;;;;5094725;28;20058;-30
2022/07/15 11:53:54;;;;;;;3.70;0.55;;;22.90;49.80;;;;;;5095058;28;20103;-31
2022/07/15 11:56:19;;;;;;;1.65;0.60;;;23.10;49.20;;;;;;5094911;28;20052;-32
2022/07/15 11:58:51;;;;;;;2.10;0.80;;;23.00;49.10;;;;;;5094894;28;20063;-36
2022/07/15 12:01:20;;;;;;;5.10;2.92;;;22.80;49.10;;;;;;5093254;28;20463;-32
2022/07/15 12:03:48;;;;;;;3.17;1.50;;;22.80;49.30;;;;;;5095178;28;20093;-30
2022/07/15 12:06:21;;;;;;;3.17;1.70;;;22.70;49.30;;;;;;5093238;28;20066;-36
2022/07/15 12:08:58;;;;;;;2.30;1.10;;;22.60;49.30;;;;;;5094407;28;20024;-33
2022/07/15 12:11:26;;;;;;;3.65;0.93;;;22.60;49.40;;;;;;5094199;28;20051;-32
2022/07/15 12:13:59;;;;;;;0.90;0.50;;;22.60;49.50;;;;;;5094704;28;20127;-31
2022/07/15 12:16:29;;;;;;;;;;;22.70;49.60;;;;;;5092680;28;20510;-39
2022/07/15 12:18:56;;;;;;;5.68;0.88;;;22.80;49.20;;;;;;5094483;28;19908;-30
2022/07/15 12:21:22;;;;;;;3.13;0.70;;;22.80;49.10;;;;;;5094780;28;20045;-32
2022/07/15 12:23:59;;;;;;;1.48;0.70;;;22.80;49.00;;;;;;5094716;28;20398;-30
2022/07/15 12:26:25;;;;;;;1.48;0.57;;;22.90;49.10;;;;;;5094499;28;20187;-31
2022/07/15 12:28:55;;;;;;;3.08;0.70;;;22.90;49.20;;;;;;5094416;28;20024;-29
2022/07/15 12:31:30;;;;;;;1.58;0.50;;;22.90;49.10;;;;;;5094764;28;20028;-29
2022/07/15 12:33:56;;;;;;;2.22;0.80;;;23.00;49.00;;;;;;5094464;28;20473;-30
2022/07/15 12:36:27;;;;;;;1.98;0.57;;;23.10;48.70;;;;;;5093849;28;20107;-33
2022/07/15 12:39:02;;;;;;;0.45;0.32;;;23.10;48.50;;;;;;5094265;28;20023;-30
2022/07/15 12:41:27;;;;;;;1.30;0.60;;;23.20;48.30;;;;;;5094220;28;20028;-30
2022/07/15 12:43:59;;;;;;;2.55;0.52;;;23.30;48.10;;;;;;5093855;28;20467;-32
2022/07/15 12:46:56;;;;;;;2.67;0.70;;;23.20;48.00;;;;;;5093923;28;20328;-31
2022/07/15 12:49:50;;;;;;;0.95;0.40;;;23.10;48.00;;;;;;5093730;28;20029;-28
2022/07/15 12:52:25;;;;;;;1.85;0.60;;;22.90;48.30;;;;;;5093744;28;20049;-30
2022/07/15 12:54:54;;;;;;;1.95;0.80;;;22.80;48.50;;;;;;5093695;28;20032;-30
2022/07/15 12:57:29;;;;;;;1.60;0.68;;;22.70;48.60;;;;;;5093714;28;20020;-33
2022/07/15 12:59:58;;;;;;;1.95;0.77;;;22.60;48.40;;;;;;5093649;28;20499;-32
2022/07/15 13:02:25;;;;;;;0.90;0.50;;;22.70;48.40;;;;;;5093485;28;20024;-29
2022/07/15 13:04:51;;;;;;;1.42;0.60;;;22.60;48.00;;;;;;5093382;28;20027;-30
2022/07/15 13:07:17;;;;;;;0.50;0.40;;;22.60;48.00;;;;;;5093549;28;20016;-30
2022/07/15 13:09:43;;;;;;;1.65;0.47;;;22.60;48.00;;;;;;5093400;28;20095;-30
2022/07/15 13:12:11;;;;;;;0.90;0.50;;;22.60;48.00;;;;;;5093191;28;20027;-27